Latest Coastal Weather Observations for Flinders Island Airport

IDV60701

Issued at 5:21 pm EST Saturday 18 April 2015 (issued every 10 minutes, with the page automatically refreshed every 10 minutes)

About coastal observations | Map of coastal stations | Coastal observations for VIC | Marine services | Other Formats
Station Details ID: 099005 Name: FLINDERS ISLAND AIRPORT Lat: -40.09 Lon: 148.00 Height: 9.0 m
Data from the previous 72 hours. | See also: Recent months at Flinders Island Airport
Date/Time
EST
Temp

°C
Wind Pressure Rain
since 9am
mm
Weather Cloud Vis
km
Sea
Height
m
Swell
Dir
 
Speed
knots
Gust
knots
hPa Trend Height
m
Period
s
Dir
18/05:00pm 16.2 WNW 18 23 1008.8 - 0.2 - Partly cloudy 10 - - - -
18/04:30pm 16.2 WNW 18 22 1008.6 - 0.2 - Partly cloudy 10 - - - -
18/04:00pm 16.9 WNW 16 22 1008.5 - 0.2 - Partly cloudy 10 - - - -
18/03:30pm 16.7 WNW 17 23 1008.7 - 0.2 - Partly cloudy 10 - - - -
18/03:00pm 17.3 WNW 17 21 1008.5 - 0.2 - Mostly clear 10 - - - -
18/02:30pm 16.7 WNW 15 20 1008.7 - 0.2 - Partly cloudy 10 - - - -
18/02:26pm 16.7 WNW 14 19 1008.8 - 0.2 - Partly cloudy 10 - - - -
18/02:00pm 15.5 W 14 18 1008.9 - 0.2 - Partly cloudy 10 - - - -
18/01:58pm 15.6 W 14 18 1009.0 - 0.2 - Partly cloudy 10 - - - -
18/01:30pm 16.6 WNW 14 19 1008.9 - 0.2 - Partly cloudy 10 - - - -
18/01:00pm 16.6 WNW 15 18 1009.3 - 0.2 - Cloudy 10 - - - -
18/12:30pm 17.0 WNW 14 18 1009.8 - 0.2 - Partly cloudy 10 - - - -
18/12:00pm 17.9 WNW 15 19 1010.1 - 0.2 - Cloudy 10 - - - -
18/11:30am 17.2 WNW 16 20 1010.4 - 0.2 - Partly cloudy 10 - - - -
18/11:00am 17.0 WNW 15 19 1010.4 - 0.2 - Cloudy 10 - - - -
18/10:34am 16.9 WNW 13 17 1010.7 - 0.2 - Partly cloudy 10 - - - -
18/10:30am 16.7 WNW 13 17 1010.6 - 0.2 - Partly cloudy 10 - - - -
18/10:00am 15.5 NW 12 15 1011.0 - 0.2 - Partly cloudy 10 - - - -
18/09:30am 15.4 WNW 11 16 1010.8 - 0.2 - Partly cloudy 10 - - - -
18/09:00am 15.8 NW 12 16 1011.2 - 0.2 - Cloudy 10 - - - -
18/08:30am 15.8 WNW 13 19 1011.2 - 0.2 - Partly cloudy 10 - - - -
18/08:00am 15.5 WNW 11 16 1011.2 - 0.2 - Partly cloudy 10 - - - -
18/07:30am 15.4 NW 10 15 1010.9 - 0.2 - Partly cloudy 10 - - - -
18/07:00am 15.2 NW 11 16 1010.8 - 0.2 - Partly cloudy 10 - - - -
18/06:30am 14.9 NNW 9 11 1010.5 - 0.2 - Partly cloudy 10 - - - -
18/06:00am 14.6 NNW 7 8 1010.6 - 0.2 - Cloudy 10 - - - -
18/05:31am 14.3 NNW 5 6 1010.1 - 0.2 - Partly cloudy 10 - - - -
18/05:30am 14.3 NNW 5 6 1010.1 - 0.2 - Partly cloudy 10 - - - -
18/05:22am 14.3 NNW 5 6 1010.0 - 0.2 - Partly cloudy 10 - - - -
18/05:00am 14.4 NNW 6 9 1010.1 - 0.2 - Partly cloudy 10 - - - -
18/04:30am 14.4 NNW 6 8 1010.6 - 0.2 - Partly cloudy 10 - - - -
18/04:00am 14.3 NNW 5 6 1010.4 - 0.2 - Cloudy 10 - - - -
18/03:30am 14.4 NNW 6 7 1010.4 - 0.2 - Partly cloudy 10 - - - -
18/03:00am 14.8 NW 5 7 1010.9 - 0.2 Rain Cloudy 9 - - - -
18/02:56am 14.9 NW 6 8 1010.9 - 0.2 - Cloudy 9 - - - -
18/02:30am 15.3 NW 6 7 1011.3 - 0.0 - Partly cloudy 10 - - - -
18/02:00am 13.8 NE 3 5 1012.0 - 0.0 - Cloudy 10 - - - -
18/01:30am 13.7 NE 5 5 1012.4 - 0.0 - Cloudy 10 - - - -
18/01:00am 13.4 NE 2 4 1013.0 - 0.0 - Partly cloudy 10 - - - -
18/12:30am 13.5 CALM 0 5 1013.3 - 0.0 - Partly cloudy 10 - - - -
18/12:00am 13.8 CALM 0 0 1013.7 - 0.0 - Cloudy 10 - - - -
 
Date/Time
EST
Temp

°C
Wind Pressure Rain
since 9am
mm
Weather Cloud Vis
km
Sea
Height
m
Swell
Dir
 
Speed
knots
Gust
knots
hPa Trend Height
m
Period
s
Dir
17/11:30pm 13.8 CALM 0 0 1014.0 - 0.0 - Cloudy 10 - - - -
17/11:00pm 13.9 ENE 2 5 1014.4 - 0.0 - Cloudy 10 - - - -
17/10:30pm 14.0 SE 3 5 1014.9 - 0.0 - Partly cloudy 10 - - - -
17/10:00pm 13.6 SSE 4 5 1015.3 - 0.0 - Partly cloudy 10 - - - -
17/09:30pm 13.4 NE 3 7 1015.8 - 0.0 - Cloudy 10 - - - -
17/09:00pm 13.5 SE 2 4 1016.0 - 0.0 - Cloudy 10 - - - -
17/08:30pm 13.6 E 4 4 1016.6 - 0.0 - Partly cloudy 10 - - - -
17/08:00pm 14.3 ENE 4 5 1017.1 - 0.0 - Cloudy 10 - - - -
17/07:30pm 13.9 N 4 6 1017.5 - 0.0 - Cloudy 10 - - - -
17/07:00pm 13.9 N 5 6 1017.8 - 0.0 - Cloudy 10 - - - -
17/06:30pm 13.6 NNE 5 6 1017.8 - 0.0 - Partly cloudy 10 - - - -
17/06:00pm 13.8 N 6 8 1017.8 - 0.0 - Partly cloudy 10 - - - -
17/05:30pm 14.6 N 7 8 1017.7 - 0.0 - Partly cloudy 10 - - - -
17/05:00pm 15.2 WNW 6 8 1017.6 - 0.0 - - 10 - - - -
17/04:30pm 15.6 WNW 7 9 1017.5 - 0.0 - - 10 - - - -
17/04:00pm 15.8 W 8 10 1017.8 - 0.0 - - 10 - - - -
17/03:30pm 16.1 W 8 10 1018.5 - 0.0 - - 10 - - - -
17/03:00pm 16.5 W 9 12 1018.9 - 0.0 - - 10 - - - -
17/02:30pm 16.6 W 11 14 1019.0 - 0.0 - - 10 - - - -
17/02:00pm 16.7 WNW 9 13 1019.0 - 0.0 - - 10 - - - -
17/01:30pm 17.4 W 9 13 1019.6 - 0.0 - Partly cloudy 10 - - - -
17/01:00pm 17.6 WNW 10 15 1020.2 - 0.0 - - 10 - - - -
17/12:30pm 17.1 W 9 13 1020.8 - 0.0 - Partly cloudy 10 - - - -
17/12:00pm 17.0 WNW 8 11 1021.6 - 0.0 - Partly cloudy 10 - - - -
17/11:30am 17.4 W 7 10 1022.1 - 0.0 - Partly cloudy 10 - - - -
17/11:00am 17.4 W 9 13 1022.5 - 0.0 - Partly cloudy 10 - - - -
17/10:30am 16.7 W 9 12 1023.0 - 0.0 - Partly cloudy 10 - - - -
17/10:00am 16.9 WNW 8 11 1023.2 - 0.0 - Partly cloudy 10 - - - -
17/09:30am 16.8 W 8 12 1023.1 - 0.0 - Partly cloudy 10 - - - -
17/09:00am 16.3 W 9 11 1023.2 - 0.0 - Partly cloudy 10 - - - -
17/08:30am 15.6 W 11 14 1023.3 - 0.0 - Cloudy 10 - - - -
17/08:00am 15.5 WSW 9 13 1023.3 - 0.0 - Partly cloudy 10 - - - -
17/07:30am 14.8 W 9 12 1023.2 - 0.0 - Partly cloudy 10 - - - -
17/07:00am 13.6 WSW 10 12 1023.1 - 0.0 - - 10 - - - -
17/06:30am 14.1 WSW 12 15 1023.1 - 0.0 - Partly cloudy 10 - - - -
17/06:00am 14.0 WSW 12 15 1023.0 - 0.0 - Partly cloudy 10 - - - -
17/05:30am 14.2 WSW 12 15 1022.9 - 0.0 - Partly cloudy 10 - - - -
17/05:00am 13.9 SW 12 16 1022.5 - 0.0 - Partly cloudy 10 - - - -
17/04:30am 14.2 WSW 14 17 1022.3 - 0.0 - Partly cloudy 10 - - - -
17/04:00am 14.1 WSW 15 17 1022.1 - 0.0 - Partly cloudy 10 - - - -
17/03:30am 14.1 WSW 15 18 1022.1 - 0.0 - Partly cloudy 10 - - - -
17/03:00am 13.9 WSW 15 18 1022.0 - 0.0 - - 10 - - - -
17/02:30am 14.0 WSW 17 19 1022.2 - 0.0 - Partly cloudy 10 - - - -
17/02:00am 14.0 WSW 17 20 1022.4 - 0.0 - Partly cloudy 10 - - - -
17/01:30am 13.9 WSW 17 20 1022.7 - 0.0 - - 10 - - - -
17/01:00am 14.1 WSW 16 21 1022.9 - 0.0 - - 10 - - - -
17/12:30am 13.9 WSW 17 21 1023.3 - 0.0 - - 10 - - - -
17/12:00am 14.2 WSW 18 21 1023.6 - 0.0 - Mostly clear 10 - - - -
 
Date/Time
EST
Temp

°C
Wind Pressure Rain
since 9am
mm
Weather Cloud Vis
km
Sea
Height
m
Swell
Dir
 
Speed
knots
Gust
knots
hPa Trend Height
m
Period
s
Dir
16/11:30pm 14.3 WSW 18 22 1023.9 - 0.0 - Partly cloudy 10 - - - -
16/11:00pm 14.4 WSW 17 23 1023.8 - 0.0 - Partly cloudy 10 - - - -
16/10:30pm 14.4 WSW 19 22 1023.9 - 0.0 - Partly cloudy 10 - - - -
16/10:00pm 14.6 WSW 21 24 1023.8 - 0.0 - Partly cloudy 10 - - - -
16/09:30pm 14.5 WSW 19 23 1023.5 - 0.0 - Partly cloudy 10 - - - -
16/09:00pm 14.7 WSW 19 22 1023.5 - 0.0 - Partly cloudy 10 - - - -
16/08:30pm 14.9 WSW 19 22 1023.2 - 0.0 - Partly cloudy 10 - - - -
16/08:00pm 15.1 WSW 19 23 1023.1 - 0.0 - Cloudy 10 - - - -
16/07:30pm 15.1 WSW 19 24 1022.9 - 0.0 - Partly cloudy 10 - - - -
16/07:00pm 15.1 WSW 19 23 1022.8 - 0.0 - Partly cloudy 10 - - - -
16/06:30pm 15.1 W 19 23 1022.6 - 0.0 - Partly cloudy 10 - - - -
16/06:00pm 15.0 W 19 22 1022.4 - 0.0 - Mostly cloudy 10 - - - -
16/05:30pm 14.9 W 17 21 1022.3 - 0.0 - Partly cloudy 10 - - - -
16/05:00pm 14.9 WSW 17 20 1022.0 - 0.0 - Partly cloudy 10 - - - -
16/04:30pm 15.3 WSW 16 20 1021.7 - 0.0 - Partly cloudy 10 - - - -
16/04:00pm 16.0 WSW 17 22 1021.6 - 0.0 - Partly cloudy 10 - - - -
16/03:30pm 15.7 WSW 17 21 1021.4 - 0.0 - Partly cloudy 10 - - - -
16/03:00pm 15.5 W 19 21 1021.6 - 0.0 - Partly cloudy 10 - - - -
16/02:30pm 16.3 W 18 22 1021.4 - 0.0 - Partly cloudy 10 - - - -
16/02:00pm 16.7 WSW 19 24 1021.0 - 0.0 - Partly cloudy 10 - - - -
16/01:30pm 16.1 WSW 22 27 1021.0 - 0.0 - Partly cloudy 10 - - - -
16/01:00pm 16.4 W 22 27 1020.9 - 0.0 - Partly cloudy 10 - - - -
16/12:30pm 17.1 WSW 21 27 1020.9 - 0.0 - Partly cloudy 10 - - - -
16/12:00pm 16.4 W 23 28 1021.2 - 0.0 - Cloudy 10 - - - -
16/11:30am 17.1 W 21 26 1021.3 - 0.0 - Partly cloudy 10 - - - -
16/11:00am 16.1 WSW 21 26 1021.3 - 0.0 - Partly cloudy 10 - - - -
16/10:30am 16.0 W 24 28 1021.0 - 0.0 - Partly cloudy 10 - - - -
16/10:00am 16.0 WSW 26 31 1020.8 - 0.0 - Cloudy 10 - - - -
16/09:30am 16.1 WSW 24 31 1020.9 - 0.0 - Partly cloudy 10 - - - -
16/09:00am 16.4 WSW 23 28 1020.6 - 0.0 - Partly cloudy 10 - - - -
16/08:30am 16.4 W 24 29 1020.6 - 0.0 - Partly cloudy 10 - - - -
16/08:00am 16.3 W 24 29 1019.9 - 0.0 - Partly cloudy 10 - - - -
16/07:30am 16.5 W 21 24 1019.4 - 0.0 - Partly cloudy 10 - - - -
16/07:00am 16.4 W 18 22 1019.2 - 0.0 - Partly cloudy 10 - - - -
16/06:59am 16.5 W 18 22 1019.2 - 0.0 - Partly cloudy 10 - - - -
16/06:36am 16.5 W 19 22 1018.8 - 0.0 - Partly cloudy 10 - - - -
16/06:30am 16.5 W 18 22 1018.8 - 0.0 - Partly cloudy 10 - - - -
16/06:00am 16.4 W 16 21 1018.5 - 0.0 - Mostly cloudy 10 - - - -
16/05:47am 16.6 W 17 20 1018.4 - 0.0 - Partly cloudy 10 - - - -
16/05:32am 17.0 W 16 21 1018.4 - 0.0 - Partly cloudy 10 - - - -
16/05:30am 16.9 W 16 21 1018.4 - 0.0 - Partly cloudy 10 - - - -
16/05:28am 16.9 W 17 21 1018.4 - 0.0 - Partly cloudy 10 - - - -
16/05:10am 16.9 W 14 18 1018.1 - 0.0 - Partly cloudy 10 - - - -
16/05:00am 16.7 W 13 17 1018.0 - 0.0 - Partly cloudy 10 - - - -
16/04:30am 16.8 W 16 21 1017.6 - 0.0 - Partly cloudy 10 - - - -
16/04:15am 17.0 W 17 21 1017.9 - 0.0 - Partly cloudy 10 - - - -
16/04:00am 16.9 W 14 19 1017.6 - 0.0 - Partly cloudy 10 - - - -
16/03:30am 16.7 W 11 16 1017.4 - 0.0 - Partly cloudy 10 - - - -
16/03:14am 16.6 W 10 13 1017.3 - 0.0 - Partly cloudy 10 - - - -
16/03:00am 16.3 W 9 12 1017.4 - 0.0 - Mostly cloudy 10 - - - -
16/02:54am 16.2 WNW 9 12 1017.4 - 0.0 - Partly cloudy 10 - - - -
16/02:30am 16.6 W 9 13 1017.8 - 0.0 - Partly cloudy 10 - - - -
16/02:00am 16.8 W 13 16 1018.3 - 0.0 - Partly cloudy 10 - - - -
16/01:30am 16.6 W 9 12 1018.3 - 0.0 - Partly cloudy 10 - - - -
16/01:29am 16.6 W 9 12 1018.3 - 0.0 - Partly cloudy 10 - - - -
16/01:00am 16.8 W 9 11 1018.3 - 0.0 - Cloudy 10 - - - -
16/12:30am 16.5 WNW 7 9 1018.2 - 0.0 - Partly cloudy 10 - - - -
16/12:00am 16.0 NW 8 9 1017.9 - 0.0 - - 10 - - - -
 
Date/Time
EST
Temp

°C
Wind Pressure Rain
since 9am
mm
Weather Cloud Vis
km
Sea
Height
m
Swell
Dir
 
Speed
knots
Gust
knots
hPa Trend Height
m
Period
s
Dir
15/11:30pm 15.2 NNW 5 7 1017.6 - 0.0 - - - - - - -
15/11:00pm 12.5 NNE 4 6 1017.7 - 0.0 - - 10 - - - -
15/10:30pm 13.2 N 4 5 1017.9 - 0.0 - - 10 - - - -
15/10:00pm 13.5 NNW 6 7 1018.0 - 0.0 - - 10 - - - -
15/09:30pm 13.3 N 4 5 1018.1 - 0.0 - Partly cloudy 10 - - - -
15/09:00pm 14.2 NE 4 5 1018.0 - 0.0 - Mostly clear 10 - - - -
15/08:30pm 15.8 NNE 6 7 1017.5 - 0.0 - - 10 - - - -
15/08:00pm 16.6 NE 6 7 1017.4 - 0.0 - - 10 - - - -
15/07:30pm 16.3 NE 5 6 1017.3 - 0.0 - - 10 - - - -
15/07:00pm 16.4 NE 4 5 1017.2 - 0.0 - - 10 - - - -
15/06:30pm 17.6 NNE 4 5 1016.9 - 0.0 - - 10 - - - -
15/06:00pm 17.9 NNE 4 6 1016.8 - 0.0 - - 10 - - - -
15/05:30pm 20.8 NNW 5 6 1016.6 - 0.0 - - 10 - - - -

Other Formats:

Comma delimited format used in spreadsheet applications
http://www.bom.gov.au/fwo/IDV60701/IDV60701.94980.axf

JavaScript Object Notation format (JSON) in row-major order
http://www.bom.gov.au/fwo/IDV60701/IDV60701.94980.json